createdAt,value
2022-09-21T00:01:40.358Z,8.25
2022-09-21T00:04:06.932Z,7.50
2022-09-21T00:06:34.020Z,7.90
2022-09-21T00:09:00.570Z,8.23
2022-09-21T00:11:28.605Z,8.95
2022-09-21T00:13:58.745Z,11.55
2022-09-21T00:16:25.630Z,7.10
2022-09-21T00:18:52.420Z,8.02
2022-09-21T00:21:19.270Z,6.75
2022-09-21T00:23:46.141Z,9.75
2022-09-21T00:26:14.406Z,7.45
2022-09-21T00:28:40.855Z,7.47
2022-09-21T00:31:08.701Z,6.63
2022-09-21T00:33:35.124Z,8.57
2022-09-21T00:36:03.192Z,6.15
2022-09-21T00:38:29.567Z,8.40
2022-09-21T00:40:56.025Z,7.00
2022-09-21T00:43:22.413Z,6.63
2022-09-21T00:45:49.963Z,7.68
2022-09-21T00:48:16.730Z,10.32
2022-09-21T00:50:47.112Z,6.18
2022-09-21T00:53:13.873Z,6.47
2022-09-21T00:55:46.257Z,5.03
2022-09-21T00:58:15.542Z,6.32
2022-09-21T01:00:42.918Z,6.32
2022-09-21T01:03:10.519Z,6.50
2022-09-21T01:05:36.884Z,6.40
2022-09-21T01:08:05.774Z,6.80
2022-09-21T01:10:38.477Z,6.97
2022-09-21T01:13:13.304Z,5.45
2022-09-21T01:15:43.315Z,5.13
2022-09-21T01:18:18.397Z,6.43
2022-09-21T01:20:44.766Z,9.40
2022-09-21T01:23:23.508Z,6.85
2022-09-21T01:25:53.086Z,8.07
2022-09-21T01:28:38.323Z,6.57
2022-09-21T01:31:06.085Z,6.78
2022-09-21T01:33:35.228Z,7.03
2022-09-21T01:36:04.145Z,9.27
2022-09-21T01:38:33.176Z,6.35
2022-09-21T01:41:01.129Z,5.32
2022-09-21T01:43:31.189Z,9.15
2022-09-21T01:46:02.194Z,6.45
2022-09-21T01:48:31.727Z,6.22
2022-09-21T01:51:00.399Z,8.07
2022-09-21T01:53:47.038Z,8.32
2022-09-21T01:56:15.905Z,6.72
2022-09-21T01:58:45.358Z,6.82
2022-09-21T02:01:13.069Z,7.32
2022-09-21T02:03:42.537Z,5.15
2022-09-21T02:06:09.903Z,7.20
2022-09-21T02:08:36.307Z,6.28
2022-09-21T02:11:04.016Z,6.43
2022-09-21T02:13:36.428Z,6.40
2022-09-21T02:16:09.110Z,5.38
2022-09-21T02:18:35.601Z,8.57
2022-09-21T02:21:04.183Z,5.00
2022-09-21T02:23:44.741Z,6.68
2022-09-21T02:26:17.583Z,9.18
2022-09-21T02:28:44.281Z,6.60
2022-09-21T02:31:29.484Z,6.90
2022-09-21T02:33:59.247Z,6.43
2022-09-21T02:36:35.563Z,6.78
2022-09-21T02:39:05.131Z,9.55
2022-09-21T02:41:39.430Z,7.53
2022-09-21T02:44:16.028Z,12.15
2022-09-21T02:46:46.511Z,6.50
2022-09-21T02:49:16.627Z,8.63
2022-09-21T02:51:48.532Z,8.80
2022-09-21T02:54:16.863Z,6.50
2022-09-21T02:56:44.158Z,7.20
2022-09-21T02:59:10.734Z,10.23
2022-09-21T03:01:39.546Z,4.85
2022-09-21T03:04:05.972Z,5.97
2022-09-21T03:06:33.516Z,6.07
2022-09-21T03:08:59.999Z,6.38
2022-09-21T03:11:26.510Z,9.35
2022-09-21T03:13:52.942Z,6.05
2022-09-21T03:16:19.462Z,5.53
2022-09-21T03:18:45.906Z,5.93
2022-09-21T03:21:12.542Z,9.38
2022-09-21T03:23:39.875Z,7.68
2022-09-21T03:26:06.783Z,7.80
2022-09-21T03:28:36.784Z,7.45
2022-09-21T03:31:03.595Z,7.57
2022-09-21T03:33:30.212Z,6.03
2022-09-21T03:35:57.021Z,7.55
2022-09-21T03:38:25.291Z,8.77
2022-09-21T03:40:51.973Z,7.75
2022-09-21T03:43:20.258Z,7.30
2022-09-21T03:45:51.013Z,7.10
2022-09-21T03:48:18.865Z,6.57
2022-09-21T03:50:46.472Z,6.75
2022-09-21T03:53:13.239Z,6.80
2022-09-21T03:55:42.153Z,7.05
2022-09-21T03:58:09.579Z,8.02
2022-09-21T04:00:41.784Z,7.80
2022-09-21T04:03:08.543Z,8.70
2022-09-21T04:05:37.639Z,8.07
2022-09-21T04:08:14.814Z,7.55
2022-09-21T04:10:42.932Z,7.28
2022-09-21T04:13:12.736Z,5.70
2022-09-21T04:15:40.022Z,8.43
2022-09-21T04:18:09.609Z,6.07
2022-09-21T04:20:36.344Z,10.52
2022-09-21T04:23:03.294Z,6.78
2022-09-21T04:25:33.756Z,9.20
2022-09-21T04:28:04.400Z,6.88
2022-09-21T04:30:37.546Z,6.50
2022-09-21T04:33:05.018Z,7.78
2022-09-21T04:35:33.216Z,6.38
2022-09-21T04:38:00.565Z,7.07
2022-09-21T04:40:28.509Z,6.63
2022-09-21T04:42:56.317Z,5.47
2022-09-21T04:45:24.242Z,6.72
2022-09-21T04:47:52.054Z,8.00
2022-09-21T04:50:20.612Z,8.23
2022-09-21T04:53:12.714Z,11.60
2022-09-21T04:55:39.267Z,7.88
2022-09-21T04:58:05.968Z,7.38
2022-09-21T05:00:32.449Z,6.85
2022-09-21T05:02:58.826Z,5.53
2022-09-21T05:05:25.260Z,7.22
2022-09-21T05:07:51.680Z,6.60
2022-09-21T05:10:18.084Z,8.05
2022-09-21T05:12:44.556Z,5.82
2022-09-21T05:15:13.882Z,5.93
2022-09-21T05:17:40.792Z,6.60
2022-09-21T05:20:07.611Z,11.50
2022-09-21T05:22:34.121Z,6.78
2022-09-21T05:25:00.746Z,7.40
2022-09-21T05:27:27.280Z,7.20
2022-09-21T05:29:53.883Z,7.65
2022-09-21T05:32:39.177Z,7.28
2022-09-21T05:35:06.497Z,11.60
2022-09-21T05:37:52.185Z,8.93
2022-09-21T05:40:18.963Z,9.65
2022-09-21T05:42:45.528Z,10.18
2022-09-21T05:45:16.077Z,9.43
2022-09-21T05:47:45.488Z,15.73
2022-09-21T05:50:35.361Z,10.88
2022-09-21T05:53:11.397Z,11.52
2022-09-21T05:55:56.924Z,8.75
2022-09-21T05:58:30.997Z,8.63
2022-09-21T06:01:16.571Z,9.52
2022-09-21T06:03:43.279Z,13.45
2022-09-21T06:06:10.120Z,9.95
2022-09-21T06:08:36.548Z,11.38
2022-09-21T06:11:02.977Z,9.57
2022-09-21T06:13:29.392Z,10.82
2022-09-21T06:15:55.845Z,13.43
2022-09-21T06:18:22.371Z,10.85
2022-09-21T06:20:48.909Z,9.18
2022-09-21T06:23:15.708Z,14.50
2022-09-21T06:25:42.101Z,14.18
2022-09-21T06:28:10.094Z,11.25
2022-09-21T06:30:37.211Z,13.18
2022-09-21T06:33:04.581Z,15.38
2022-09-21T06:35:32.393Z,15.27
2022-09-21T06:38:02.825Z,16.27
2022-09-21T06:40:29.714Z,13.70
2022-09-21T06:42:57.900Z,17.10
2022-09-21T06:45:24.774Z,21.30
2022-09-21T06:47:51.167Z,16.90
2022-09-21T06:50:17.830Z,20.13
2022-09-21T06:52:44.403Z,17.52
2022-09-21T06:55:10.975Z,19.27
2022-09-21T06:57:40.503Z,18.23
2022-09-21T07:00:09.743Z,20.30
2022-09-21T07:02:45.219Z,23.40
2022-09-21T07:05:12.579Z,24.65
2022-09-21T07:07:40.259Z,26.35
2022-09-21T07:10:12.120Z,21.48
2022-09-21T07:12:41.605Z,19.02
2022-09-21T07:15:08.469Z,20.70
2022-09-21T07:17:36.210Z,21.40
2022-09-21T07:20:03.287Z,24.52
2022-09-21T07:22:30.085Z,22.58
2022-09-21T07:24:56.486Z,22.27
2022-09-21T07:27:22.856Z,27.90
2022-09-21T07:29:49.262Z,25.55
2022-09-21T07:32:15.681Z,34.92
2022-09-21T07:34:42.521Z,32.85
2022-09-21T07:37:11.404Z,29.92
2022-09-21T07:39:38.924Z,29.80
2022-09-21T07:42:06.214Z,26.70
2022-09-21T07:44:33.013Z,26.23
2022-09-21T07:46:59.487Z,30.23
2022-09-21T07:49:26.063Z,30.92
2022-09-21T07:51:52.447Z,25.73
2022-09-21T07:54:18.791Z,28.30
2022-09-21T07:57:05.132Z,26.13
2022-09-21T07:59:32.743Z,21.92
2022-09-21T08:02:00.069Z,19.48
2022-09-21T08:04:26.700Z,23.48
2022-09-21T08:06:53.078Z,22.63
2022-09-21T08:09:19.462Z,22.73
2022-09-21T08:11:47.033Z,23.75
2022-09-21T08:14:23.840Z,18.40
2022-09-21T08:16:52.741Z,18.48
2022-09-21T08:19:19.231Z,23.17
2022-09-21T08:21:50.540Z,16.60
2022-09-21T08:24:20.300Z,16.92
2022-09-21T08:26:46.761Z,17.17
2022-09-21T08:29:15.800Z,14.82
2022-09-21T08:31:42.373Z,17.95
2022-09-21T08:34:08.861Z,15.25
2022-09-21T08:36:35.474Z,13.00
2022-09-21T08:39:02.927Z,12.68
2022-09-21T08:41:29.300Z,11.18
2022-09-21T08:43:58.632Z,11.30
2022-09-21T08:46:27.211Z,11.50
2022-09-21T08:48:54.311Z,11.68
2022-09-21T08:51:23.170Z,11.25
2022-09-21T08:53:52.058Z,11.80
2022-09-21T08:56:20.364Z,11.88
2022-09-21T08:58:46.830Z,11.57
2022-09-21T09:01:22.516Z,10.40
2022-09-21T09:03:52.011Z,11.63
2022-09-21T09:06:18.452Z,12.98
2022-09-21T09:08:52.250Z,9.30
2022-09-21T09:11:18.637Z,10.27
2022-09-21T09:14:06.461Z,11.70
2022-09-21T09:16:42.657Z,14.77
2022-09-21T09:19:18.414Z,9.45
2022-09-21T09:21:44.983Z,7.93
2022-09-21T09:24:30.277Z,9.10
2022-09-21T09:27:01.135Z,8.00
2022-09-21T09:29:42.883Z,7.38
2022-09-21T09:32:12.903Z,9.82
2022-09-21T09:34:42.211Z,7.40
2022-09-21T09:37:13.080Z,7.03
2022-09-21T09:39:41.294Z,7.78
2022-09-21T09:42:20.047Z,7.45
2022-09-21T09:45:05.047Z,7.75
2022-09-21T09:47:43.679Z,6.50
2022-09-21T09:50:21.780Z,6.20
2022-09-21T09:52:54.268Z,5.40
2022-09-21T09:55:22.451Z,6.63
2022-09-21T09:57:49.915Z,5.05
2022-09-21T10:00:20.723Z,7.45
2022-09-21T10:02:52.013Z,5.95
2022-09-21T10:05:21.903Z,6.20
2022-09-21T10:07:50.931Z,7.57
2022-09-21T10:10:32.841Z,5.93
2022-09-21T10:13:05.910Z,5.60
2022-09-21T10:15:33.301Z,6.93
2022-09-21T10:18:07.619Z,7.93
2022-09-21T10:20:35.649Z,5.72
2022-09-21T10:23:03.316Z,5.78
2022-09-21T10:25:31.064Z,5.32
2022-09-21T10:27:57.533Z,4.03
2022-09-21T10:30:30.121Z,4.70
2022-09-21T10:32:57.810Z,6.22
2022-09-21T10:35:25.176Z,6.55
2022-09-21T10:38:10.516Z,4.05
2022-09-21T10:40:37.897Z,3.70
2022-09-21T10:43:07.324Z,6.43
2022-09-21T10:45:52.943Z,8.43
2022-09-21T10:48:21.385Z,5.93
2022-09-21T10:50:50.944Z,3.67
2022-09-21T10:53:17.624Z,6.43
2022-09-21T10:56:14.483Z,6.32
2022-09-21T10:59:01.709Z,6.05
2022-09-21T11:01:29.624Z,7.35
2022-09-21T11:04:00.454Z,2.97
2022-09-21T11:06:26.816Z,5.88
2022-09-21T11:08:59.330Z,4.78
2022-09-21T11:11:32.867Z,6.63
2022-09-21T11:14:03.298Z,3.55
2022-09-21T11:16:47.657Z,7.65
2022-09-21T11:19:18.692Z,4.93
2022-09-21T11:21:50.771Z,4.32
2022-09-21T11:24:22.815Z,4.15
2022-09-21T11:27:08.053Z,3.60
2022-09-21T11:29:51.397Z,3.25
2022-09-21T11:32:37.143Z,6.93
2022-09-21T11:35:18.538Z,6.68
2022-09-21T11:38:04.359Z,4.97
2022-09-21T11:40:30.837Z,4.43
2022-09-21T11:42:57.256Z,4.00
2022-09-21T11:45:49.715Z,4.63
2022-09-21T11:48:43.098Z,3.45
2022-09-21T11:51:39.604Z,4.05
2022-09-21T11:54:26.331Z,1.85
2022-09-21T11:57:12.268Z,3.80
2022-09-21T11:59:40.091Z,2.90
2022-09-21T12:02:25.559Z,4.10
2022-09-21T12:05:27.849Z,2.47
2022-09-21T12:07:54.387Z,2.03
2022-09-21T12:10:30.467Z,3.10
2022-09-21T12:13:01.970Z,3.55
2022-09-21T12:15:34.953Z,7.55
2022-09-21T12:18:04.457Z,2.22
2022-09-21T12:20:54.486Z,3.83
2022-09-21T12:23:41.112Z,3.95
2022-09-21T12:26:08.496Z,2.30
2022-09-21T12:28:37.728Z,2.78
2022-09-21T12:31:07.033Z,2.33
2022-09-21T12:33:37.025Z,2.42
2022-09-21T12:36:08.616Z,1.73
2022-09-21T12:38:45.395Z,2.25
2022-09-21T12:41:12.123Z,2.65
2022-09-21T12:43:41.632Z,3.83
2022-09-21T12:46:11.509Z,2.35
2022-09-21T12:48:39.336Z,4.00
2022-09-21T12:51:11.907Z,4.13
2022-09-21T12:53:40.088Z,4.25
2022-09-21T12:56:10.278Z,3.92
2022-09-21T12:58:55.878Z,4.75
2022-09-21T13:01:31.586Z,5.38
2022-09-21T13:04:03.759Z,2.13
2022-09-21T13:06:57.556Z,4.63
2022-09-21T13:09:24.639Z,5.60
2022-09-21T13:12:05.413Z,4.25
2022-09-21T13:14:39.272Z,4.80
2022-09-21T13:17:06.020Z,5.38
2022-09-21T13:19:35.634Z,4.15
2022-09-21T13:22:19.862Z,2.13
2022-09-21T13:25:01.245Z,2.88
2022-09-21T13:27:49.124Z,1.88
2022-09-21T13:30:29.709Z,2.80
2022-09-21T13:32:56.438Z,2.08
2022-09-21T13:35:43.902Z,5.95
2022-09-21T13:38:23.467Z,2.25
2022-09-21T13:40:55.999Z,4.25
2022-09-21T13:43:23.556Z,3.10
2022-09-21T13:45:54.172Z,3.00
2022-09-21T13:48:26.008Z,2.38
2022-09-21T13:50:55.980Z,3.72
2022-09-21T13:53:24.952Z,2.03
2022-09-21T13:55:56.001Z,3.42
2022-09-21T13:58:27.334Z,2.60
2022-09-21T14:00:55.564Z,4.05
2022-09-21T14:03:24.295Z,3.13
2022-09-21T14:06:02.253Z,3.60
2022-09-21T14:08:34.607Z,1.55
2022-09-21T14:11:05.339Z,2.42
2022-09-21T14:13:36.765Z,1.90
2022-09-21T14:16:30.396Z,1.38
2022-09-21T14:18:57.198Z,4.25
2022-09-21T14:21:23.875Z,2.50
2022-09-21T14:24:05.698Z,3.33
2022-09-21T14:26:32.755Z,3.17
2022-09-21T14:29:05.497Z,3.53
2022-09-21T14:31:34.513Z,4.78
2022-09-21T14:34:02.982Z,1.67
2022-09-21T14:36:38.324Z,2.47
2022-09-21T14:39:05.929Z,4.22
2022-09-21T14:41:38.522Z,2.53
2022-09-21T14:44:05.142Z,4.25
2022-09-21T14:46:55.278Z,4.65
2022-09-21T14:49:25.538Z,3.85
2022-09-21T14:52:03.898Z,2.30
2022-09-21T14:54:37.417Z,5.03
2022-09-21T14:57:10.947Z,4.50
2022-09-21T14:59:58.676Z,2.42
2022-09-21T15:02:27.217Z,2.55
2022-09-21T15:04:59.746Z,4.13
2022-09-21T15:08:03.964Z,2.00
2022-09-21T15:10:53.019Z,1.63
2022-09-21T15:13:41.066Z,1.92
2022-09-21T15:16:28.501Z,4.10
2022-09-21T15:19:24.692Z,2.78
2022-09-21T15:22:17.408Z,2.97
2022-09-21T15:25:05.349Z,2.92
2022-09-21T15:27:34.373Z,3.55
2022-09-21T15:30:02.501Z,2.15
2022-09-21T15:32:38.152Z,1.75
2022-09-21T15:35:18.397Z,2.53
2022-09-21T15:37:45.854Z,3.08
2022-09-21T15:40:21.368Z,2.08
2022-09-21T15:43:09.525Z,3.90
2022-09-21T15:45:58.227Z,1.77
2022-09-21T15:48:26.530Z,3.83
2022-09-21T15:50:58.070Z,3.15
2022-09-21T15:53:36.178Z,3.97
2022-09-21T15:56:02.713Z,1.75
2022-09-21T15:58:40.711Z,5.60
2022-09-21T16:01:12.810Z,2.85
2022-09-21T16:03:39.883Z,2.97
2022-09-21T16:06:21.294Z,3.10
2022-09-21T16:08:47.816Z,2.35
2022-09-21T16:11:17.612Z,1.40
2022-09-21T16:14:06.715Z,1.55
2022-09-21T16:16:53.686Z,2.30
2022-09-21T16:19:33.745Z,1.17
2022-09-21T16:22:04.285Z,3.30
2022-09-21T16:24:41.949Z,1.52
2022-09-21T16:27:15.063Z,3.00
2022-09-21T16:29:43.569Z,3.17
2022-09-21T16:32:32.701Z,1.50
2022-09-21T16:35:22.310Z,2.00
2022-09-21T16:37:50.888Z,2.28
2022-09-21T16:40:21.830Z,2.15
2022-09-21T16:42:49.893Z,2.50
2022-09-21T16:45:28.948Z,1.90
2022-09-21T16:47:59.511Z,3.78
2022-09-21T16:50:29.270Z,2.53
2022-09-21T16:53:02.745Z,2.72
2022-09-21T16:55:38.428Z,4.03
2022-09-21T16:58:05.091Z,1.95
2022-09-21T17:00:38.772Z,2.72
2022-09-21T17:03:05.422Z,2.58
2022-09-21T17:05:34.928Z,4.03
2022-09-21T17:08:05.354Z,6.88
2022-09-21T17:10:39.602Z,5.85
2022-09-21T17:13:09.236Z,4.38
2022-09-21T17:15:36.660Z,2.67
2022-09-21T17:18:03.718Z,1.88
2022-09-21T17:20:40.137Z,3.70
2022-09-21T17:23:15.057Z,2.08
2022-09-21T17:25:42.781Z,3.22
2022-09-21T17:28:15.977Z,4.55
2022-09-21T17:30:43.138Z,2.20
2022-09-21T17:33:11.039Z,2.47
2022-09-21T17:38:31.171Z,3.70
2022-09-21T17:40:59.401Z,3.72
2022-09-21T17:43:33.377Z,2.88
2022-09-21T17:46:15.865Z,4.38
2022-09-21T17:48:42.452Z,5.35
2022-09-21T17:51:09.226Z,4.25
2022-09-21T17:53:37.437Z,4.15
2022-09-21T17:56:29.458Z,4.00
2022-09-21T17:59:03.184Z,4.20
2022-09-21T18:01:33.796Z,5.93
2022-09-21T18:04:00.469Z,6.05
2022-09-21T18:06:27.089Z,6.80
2022-09-21T18:08:54.157Z,4.00
2022-09-21T18:11:29.704Z,6.03
2022-09-21T18:13:59.428Z,4.70
2022-09-21T18:16:27.278Z,5.30
2022-09-21T18:19:13.904Z,4.20
2022-09-21T18:21:41.911Z,4.75
2022-09-21T18:24:21.678Z,6.85
2022-09-21T18:26:49.286Z,4.18
2022-09-21T18:29:39.002Z,3.47
2022-09-21T18:32:22.113Z,5.10
2022-09-21T18:35:00.102Z,4.88
2022-09-21T18:37:38.625Z,5.07
2022-09-21T18:40:22.024Z,4.85
2022-09-21T18:43:00.176Z,5.18
2022-09-21T18:45:28.341Z,4.28
2022-09-21T18:47:54.823Z,3.83
2022-09-21T18:50:24.545Z,3.30
2022-09-21T18:52:57.931Z,4.82
2022-09-21T18:55:27.027Z,5.13
2022-09-21T18:57:54.565Z,3.22
2022-09-21T19:00:21.535Z,4.22
2022-09-21T19:03:05.462Z,4.20
2022-09-21T19:05:37.344Z,5.82
2022-09-21T19:08:07.158Z,5.97
2022-09-21T19:10:38.401Z,7.20
2022-09-21T19:13:26.101Z,4.43
2022-09-21T19:16:01.510Z,3.80
2022-09-21T19:18:40.882Z,8.10
2022-09-21T19:21:13.136Z,5.00
2022-09-21T19:23:44.191Z,7.28
2022-09-21T19:26:17.445Z,6.63
2022-09-21T19:28:49.878Z,8.60
2022-09-21T19:31:19.080Z,6.88
2022-09-21T19:33:50.397Z,8.27
2022-09-21T19:36:18.599Z,8.40
2022-09-21T19:38:45.228Z,9.30
2022-09-21T19:41:11.965Z,7.10
2022-09-21T19:43:57.241Z,6.72
2022-09-21T19:46:40.025Z,8.05
2022-09-21T19:49:19.443Z,7.95
2022-09-21T19:51:48.352Z,5.53
2022-09-21T19:54:35.574Z,7.57
2022-09-21T19:57:21.839Z,11.88
2022-09-21T19:59:50.044Z,6.88
2022-09-21T20:02:21.403Z,6.70
2022-09-21T20:04:59.222Z,8.93
2022-09-21T20:07:38.053Z,7.30
2022-09-21T20:10:13.624Z,8.88
2022-09-21T20:13:00.293Z,8.88
2022-09-21T20:15:34.595Z,7.35
2022-09-21T20:18:24.027Z,9.23
2022-09-21T20:20:50.575Z,6.53
2022-09-21T20:23:17.144Z,7.10
2022-09-21T20:25:52.507Z,8.65
2022-09-21T20:28:19.041Z,7.28
2022-09-21T20:30:45.545Z,7.47
2022-09-21T20:33:16.254Z,8.45
2022-09-21T20:35:43.168Z,7.95
2022-09-21T20:38:10.199Z,7.90
2022-09-21T20:40:37.204Z,5.18
2022-09-21T20:43:03.660Z,8.98
2022-09-21T20:45:30.461Z,7.18
2022-09-21T20:48:15.580Z,9.55
2022-09-21T20:50:42.806Z,7.53
2022-09-21T20:53:09.370Z,8.35
2022-09-21T20:55:36.763Z,6.60
2022-09-21T20:58:03.396Z,5.75
2022-09-21T21:00:32.212Z,6.25
2022-09-21T21:03:01.595Z,6.75
2022-09-21T21:05:29.148Z,5.93
2022-09-21T21:07:56.446Z,7.13
2022-09-21T21:10:30.655Z,6.68
2022-09-21T21:13:01.911Z,8.10
2022-09-21T21:15:40.499Z,9.52
2022-09-21T21:18:10.548Z,7.35
2022-09-21T21:20:41.783Z,6.30
2022-09-21T21:23:18.687Z,7.15
2022-09-21T21:25:47.971Z,8.35
2022-09-21T21:28:20.065Z,9.73
2022-09-21T21:31:12.305Z,5.88
2022-09-21T21:33:43.111Z,8.25
2022-09-21T21:36:16.794Z,8.27
2022-09-21T21:38:50.977Z,10.40
2022-09-21T21:41:19.863Z,6.78
2022-09-21T21:43:46.286Z,6.30
2022-09-21T21:46:15.166Z,11.85
2022-09-21T21:48:53.395Z,6.18
2022-09-21T21:51:23.048Z,8.63
2022-09-21T21:53:52.927Z,8.93
2022-09-21T21:56:25.671Z,8.70
2022-09-21T21:58:53.438Z,8.38
2022-09-21T22:01:27.460Z,9.25
2022-09-21T22:03:55.200Z,6.53
2022-09-21T22:06:21.989Z,10.07
2022-09-21T22:08:48.712Z,7.47
2022-09-21T22:11:20.150Z,9.80
2022-09-21T22:14:05.774Z,9.20
2022-09-21T22:16:38.114Z,8.68
2022-09-21T22:19:15.168Z,6.88
2022-09-21T22:21:48.206Z,7.40
2022-09-21T22:24:19.668Z,9.32
2022-09-21T22:26:48.369Z,8.70
2022-09-21T22:29:15.204Z,9.13
2022-09-21T22:31:46.741Z,8.98
2022-09-21T22:34:13.377Z,8.70
2022-09-21T22:36:40.215Z,8.93
2022-09-21T22:39:18.644Z,9.05
2022-09-21T22:41:48.137Z,11.70
2022-09-21T22:44:17.011Z,9.95
2022-09-21T22:46:43.427Z,10.57
2022-09-21T22:49:11.070Z,10.02
2022-09-21T22:51:43.748Z,7.30
2022-09-21T22:54:10.218Z,8.73
2022-09-21T22:56:39.563Z,13.73
2022-09-21T22:59:07.049Z,9.55
2022-09-21T23:01:38.009Z,9.55
2022-09-21T23:04:10.281Z,7.80
2022-09-21T23:06:45.856Z,9.07
2022-09-21T23:09:13.289Z,7.07
2022-09-21T23:11:42.991Z,8.60
2022-09-21T23:14:14.653Z,8.95
2022-09-21T23:16:43.655Z,9.07
2022-09-21T23:19:15.454Z,7.47
2022-09-21T23:21:42.931Z,7.72
2022-09-21T23:24:09.370Z,8.60
2022-09-21T23:26:35.757Z,6.80
2022-09-21T23:29:03.500Z,9.88
2022-09-21T23:31:31.361Z,6.72
2022-09-21T23:34:08.412Z,11.07
2022-09-21T23:36:35.812Z,7.63
2022-09-21T23:39:02.269Z,6.57
2022-09-21T23:41:29.816Z,8.95
2022-09-21T23:43:56.629Z,10.05
2022-09-21T23:46:24.728Z,7.18
2022-09-21T23:48:51.261Z,8.85
2022-09-21T23:51:17.787Z,9.05
2022-09-21T23:53:44.466Z,7.15
2022-09-21T23:56:13.356Z,7.43
2022-09-21T23:58:39.754Z,9.20
